createdAt,value
2018-02-24T00:00:55.040Z,22.20
2018-02-24T00:03:21.266Z,22.33
2018-02-24T00:05:47.457Z,21.80
2018-02-24T00:08:14.358Z,22.33
2018-02-24T00:10:40.517Z,21.90
2018-02-24T00:13:06.708Z,22.17
2018-02-24T00:15:32.872Z,20.43
2018-02-24T00:17:59.087Z,23.73
2018-02-24T00:20:25.234Z,20.80
2018-02-24T00:22:51.396Z,21.43
2018-02-24T00:25:17.575Z,21.30
2018-02-24T00:27:43.762Z,20.87
2018-02-24T00:30:09.946Z,22.60
2018-02-24T00:32:36.947Z,22.50
2018-02-24T00:35:03.112Z,20.57
2018-02-24T00:37:30.060Z,21.50
2018-02-24T00:39:56.996Z,21.60
2018-02-24T00:42:23.948Z,21.50
2018-02-24T00:44:50.901Z,20.77
2018-02-24T00:47:17.860Z,20.40
2018-02-24T00:49:44.086Z,21.00
2018-02-24T00:52:10.275Z,20.33
2018-02-24T00:54:36.503Z,20.67
2018-02-24T00:57:02.752Z,21.33
2018-02-24T00:59:29.685Z,20.00
2018-02-24T01:01:55.915Z,19.27
2018-02-24T01:04:22.161Z,20.47
2018-02-24T01:06:49.141Z,18.60
2018-02-24T01:09:15.358Z,19.27
2018-02-24T01:11:41.482Z,19.23
2018-02-24T01:14:07.686Z,19.53
2018-02-24T01:16:34.596Z,21.10
2018-02-24T01:19:00.820Z,19.50
2018-02-24T01:21:27.049Z,19.57
2018-02-24T01:23:53.231Z,20.93
2018-02-24T01:26:19.441Z,20.10
2018-02-24T01:28:46.398Z,20.10
2018-02-24T01:31:13.311Z,20.10
2018-02-24T01:33:39.491Z,19.07
2018-02-24T01:36:05.662Z,21.67
2018-02-24T01:38:31.793Z,21.07
2018-02-24T01:40:57.952Z,19.30
2018-02-24T01:43:24.861Z,19.67
2018-02-24T01:45:51.040Z,20.23
2018-02-24T01:48:17.231Z,21.93
2018-02-24T01:50:43.387Z,18.60
2018-02-24T01:53:09.555Z,20.03
2018-02-24T01:55:35.771Z,18.93
2018-02-24T01:58:01.957Z,21.63
2018-02-24T02:00:28.912Z,19.80
2018-02-24T02:02:55.089Z,18.80
2018-02-24T02:05:21.275Z,19.17
2018-02-24T02:07:47.482Z,20.53
2018-02-24T02:10:14.448Z,20.33
2018-02-24T02:12:40.619Z,20.17
2018-02-24T02:15:06.824Z,20.53
2018-02-24T02:17:33.034Z,21.47
2018-02-24T02:19:59.199Z,20.30
2018-02-24T02:22:25.400Z,20.20
2018-02-24T02:24:51.590Z,20.10
2018-02-24T02:27:18.498Z,20.77
2018-02-24T02:29:44.674Z,21.30
2018-02-24T02:32:10.839Z,21.37
2018-02-24T02:34:37.026Z,19.23
2018-02-24T02:37:03.235Z,19.13
2018-02-24T02:39:30.132Z,19.67
2018-02-24T02:41:56.299Z,20.73
2018-02-24T02:44:22.512Z,21.30
2018-02-24T02:46:48.734Z,20.33
2018-02-24T02:49:14.967Z,20.17
2018-02-24T02:51:41.213Z,19.97
2018-02-24T02:54:08.140Z,19.17
2018-02-24T02:56:34.325Z,19.03
2018-02-24T02:59:00.538Z,19.50
2018-02-24T03:01:26.725Z,18.53
2018-02-24T03:03:53.657Z,19.43
2018-02-24T03:06:19.843Z,19.30
2018-02-24T03:08:46.028Z,20.80
2018-02-24T03:11:12.232Z,20.37
2018-02-24T03:13:38.377Z,19.10
2018-02-24T03:16:04.580Z,18.73
2018-02-24T03:18:30.788Z,17.60
2018-02-24T03:21:03.888Z,19.60
2018-02-24T03:23:30.103Z,19.80
2018-02-24T03:25:56.254Z,20.77
2018-02-24T03:28:22.391Z,20.07
2018-02-24T03:30:48.525Z,19.07
2018-02-24T03:33:14.733Z,20.13
2018-02-24T03:35:40.911Z,19.73
2018-02-24T03:38:07.821Z,18.67
2018-02-24T03:40:34.041Z,20.97
2018-02-24T03:43:00.307Z,17.83
2018-02-24T03:45:28.020Z,19.30
2018-02-24T03:47:54.237Z,19.07
2018-02-24T03:50:20.463Z,19.40
2018-02-24T03:52:46.603Z,20.23
2018-02-24T03:55:12.784Z,18.90
2018-02-24T03:57:39.708Z,18.83
2018-02-24T04:00:05.893Z,18.20
2018-02-24T04:02:32.155Z,18.93
2018-02-24T04:04:58.358Z,19.67
2018-02-24T04:07:24.543Z,19.97
2018-02-24T04:09:51.492Z,19.47
2018-02-24T04:12:17.665Z,19.53
2018-02-24T04:14:43.817Z,21.17
2018-02-24T04:17:10.031Z,19.80
2018-02-24T04:19:36.246Z,20.50
2018-02-24T04:22:02.382Z,17.77
2018-02-24T04:24:28.587Z,18.97
2018-02-24T04:26:54.806Z,19.07
2018-02-24T04:29:20.991Z,19.80
2018-02-24T04:31:47.944Z,19.73
2018-02-24T04:34:14.833Z,19.73
2018-02-24T04:36:41.027Z,19.53
2018-02-24T04:39:07.956Z,18.33
2018-02-24T04:41:34.867Z,19.87
2018-02-24T04:44:01.057Z,17.90
2018-02-24T04:46:27.247Z,20.60
2018-02-24T04:48:54.178Z,18.37
2018-02-24T04:51:20.354Z,19.83
2018-02-24T04:53:46.483Z,19.37
2018-02-24T04:56:12.622Z,18.63
2018-02-24T04:58:38.743Z,19.97
2018-02-24T05:01:04.970Z,18.80
2018-02-24T05:03:31.180Z,19.00
2018-02-24T05:05:58.166Z,20.23
2018-02-24T05:08:24.368Z,19.47
2018-02-24T05:10:50.518Z,19.30
2018-02-24T05:13:16.651Z,19.50
2018-02-24T05:15:42.842Z,21.77
2018-02-24T05:18:09.068Z,20.07
2018-02-24T05:20:35.255Z,20.67
2018-02-24T05:23:01.421Z,19.00
2018-02-24T05:25:27.630Z,20.57
2018-02-24T05:27:54.549Z,20.80
2018-02-24T05:30:20.771Z,20.20
2018-02-24T05:32:46.953Z,20.67
2018-02-24T05:35:13.187Z,20.97
2018-02-24T05:37:39.342Z,19.83
2018-02-24T05:40:05.577Z,21.53
2018-02-24T05:42:31.737Z,22.10
2018-02-24T05:44:58.687Z,22.27
2018-02-24T05:47:25.603Z,21.23
2018-02-24T05:49:51.789Z,20.60
2018-02-24T05:52:17.973Z,19.50
2018-02-24T05:54:44.986Z,21.57
2018-02-24T05:57:11.136Z,21.93
2018-02-24T05:59:37.395Z,20.70
2018-02-24T06:02:03.665Z,21.20
2018-02-24T06:04:29.809Z,22.13
2018-02-24T06:06:55.990Z,20.83
2018-02-24T06:09:22.168Z,21.83
2018-02-24T06:11:48.325Z,21.30
2018-02-24T06:14:15.298Z,21.53
2018-02-24T06:16:41.520Z,19.70
2018-02-24T06:19:07.671Z,20.03
2018-02-24T06:21:33.916Z,20.50
2018-02-24T06:24:00.163Z,21.00
2018-02-24T06:26:26.392Z,19.10
2018-02-24T06:28:52.580Z,20.13
2018-02-24T06:31:18.723Z,19.80
2018-02-24T06:33:44.971Z,20.77
2018-02-24T06:36:11.182Z,20.70
2018-02-24T06:38:37.427Z,20.73
2018-02-24T06:41:03.627Z,20.80
2018-02-24T06:43:29.824Z,21.60
2018-02-24T06:45:55.968Z,18.63
2018-02-24T06:48:22.159Z,21.50
2018-02-24T06:50:49.098Z,22.10
2018-02-24T06:53:16.003Z,23.48
2018-02-24T06:55:42.220Z,23.33
2018-02-24T06:58:08.462Z,21.67
2018-02-24T07:00:34.682Z,20.43
2018-02-24T07:03:00.904Z,22.50
2018-02-24T07:05:27.102Z,21.70
2018-02-24T07:07:53.329Z,18.53
2018-02-24T07:10:19.556Z,21.17
2018-02-24T07:12:45.749Z,19.90
2018-02-24T07:15:11.982Z,19.90
2018-02-24T07:17:38.291Z,19.13
2018-02-24T07:20:04.562Z,18.93
2018-02-24T07:22:33.048Z,20.40
2018-02-24T07:24:59.995Z,20.03
2018-02-24T07:27:26.196Z,24.03
2018-02-24T07:29:52.350Z,19.90
2018-02-24T07:32:18.612Z,19.10
2018-02-24T07:34:44.810Z,19.60
2018-02-24T07:37:11.740Z,18.60
2018-02-24T07:39:38.657Z,19.83
2018-02-24T07:42:04.810Z,18.80
2018-02-24T07:44:31.795Z,19.20
2018-02-24T07:46:57.967Z,18.47
2018-02-24T07:49:24.865Z,17.33
2018-02-24T07:51:51.138Z,19.73
2018-02-24T07:54:17.337Z,18.80
2018-02-24T07:56:43.550Z,18.80
2018-02-24T07:59:09.773Z,17.80
2018-02-24T08:01:36.046Z,17.40
2018-02-24T08:04:02.300Z,17.60
2018-02-24T08:06:29.291Z,17.10
2018-02-24T08:08:55.507Z,17.80
2018-02-24T08:11:21.754Z,15.43
2018-02-24T08:13:48.001Z,15.93
2018-02-24T08:16:14.265Z,14.90
2018-02-24T08:18:41.250Z,16.50
2018-02-24T08:21:07.411Z,17.50
2018-02-24T08:23:33.630Z,17.43
2018-02-24T08:25:59.841Z,17.50
2018-02-24T08:28:26.007Z,14.63
2018-02-24T08:30:52.902Z,14.77
2018-02-24T08:33:19.079Z,14.77
2018-02-24T08:35:46.008Z,14.70
2018-02-24T08:38:12.935Z,14.27
2018-02-24T08:40:39.166Z,13.03
2018-02-24T08:43:05.405Z,13.33
2018-02-24T08:45:31.591Z,12.70
2018-02-24T08:48:04.855Z,12.30
2018-02-24T08:50:31.754Z,13.53
2018-02-24T08:52:57.925Z,12.63
2018-02-24T08:55:24.795Z,11.13
2018-02-24T08:57:50.974Z,12.53
2018-02-24T09:00:17.151Z,11.30
2018-02-24T09:02:43.320Z,12.50
2018-02-24T09:05:09.536Z,11.47
2018-02-24T09:07:35.708Z,12.30
2018-02-24T09:10:02.709Z,11.57
2018-02-24T09:12:28.923Z,11.70
2018-02-24T09:14:55.117Z,12.13
2018-02-24T09:17:21.292Z,13.47
2018-02-24T09:19:47.495Z,11.50
2018-02-24T09:22:13.742Z,10.23
2018-02-24T09:24:39.897Z,10.70
2018-02-24T09:27:06.922Z,11.13
2018-02-24T09:29:33.156Z,11.43
2018-02-24T09:31:59.372Z,9.80
2018-02-24T09:34:25.608Z,11.40
2018-02-24T09:36:51.831Z,10.70
2018-02-24T09:39:18.005Z,10.47
2018-02-24T09:41:45.024Z,10.27
2018-02-24T09:44:11.176Z,10.20
2018-02-24T09:46:38.173Z,10.73
2018-02-24T09:49:04.364Z,10.03
2018-02-24T09:51:30.556Z,11.50
2018-02-24T09:53:56.752Z,11.30
2018-02-24T09:56:22.953Z,10.63
2018-02-24T09:58:49.116Z,11.00
2018-02-24T10:01:15.323Z,10.30
2018-02-24T10:03:41.591Z,11.20
2018-02-24T10:06:07.793Z,10.83
2018-02-24T10:08:34.039Z,11.40
2018-02-24T10:11:00.247Z,10.37
2018-02-24T10:13:26.390Z,8.60
2018-02-24T10:15:52.577Z,10.57
2018-02-24T10:18:18.734Z,10.50
2018-02-24T10:20:45.470Z,9.87
2018-02-24T10:23:12.891Z,9.50
2018-02-24T10:25:39.134Z,9.57
2018-02-24T10:28:05.475Z,10.53
2018-02-24T10:30:31.715Z,10.80
2018-02-24T10:32:57.970Z,10.33
2018-02-24T10:35:24.194Z,9.40
2018-02-24T10:37:50.502Z,9.53
2018-02-24T10:40:16.752Z,9.80
2018-02-24T10:42:42.939Z,10.70
2018-02-24T10:45:09.119Z,10.87
2018-02-24T10:47:36.026Z,10.10
2018-02-24T10:50:02.226Z,9.67
2018-02-24T10:52:28.432Z,9.67
2018-02-24T10:54:55.366Z,10.60
2018-02-24T10:57:21.536Z,10.00
2018-02-24T10:59:47.668Z,11.10
2018-02-24T11:02:13.888Z,9.43
2018-02-24T11:04:40.082Z,10.40
2018-02-24T11:07:06.997Z,9.73
2018-02-24T11:09:33.220Z,10.03
2018-02-24T11:11:59.391Z,9.60
2018-02-24T11:14:26.353Z,10.57
2018-02-24T11:16:52.498Z,9.50
2018-02-24T11:19:18.661Z,9.30
2018-02-24T11:21:45.618Z,8.60
2018-02-24T11:24:11.779Z,8.87
2018-02-24T11:26:37.968Z,9.50
2018-02-24T11:29:04.215Z,8.47
2018-02-24T11:31:30.360Z,8.60
2018-02-24T11:33:56.724Z,9.00
2018-02-24T11:36:22.957Z,10.17
2018-02-24T11:38:49.123Z,8.63
2018-02-24T11:41:16.046Z,8.30
2018-02-24T11:43:42.291Z,8.97
2018-02-24T11:46:09.256Z,8.10
2018-02-24T11:48:36.173Z,9.07
2018-02-24T11:51:03.105Z,9.23
2018-02-24T11:53:29.290Z,8.03
2018-02-24T11:55:55.513Z,8.23
2018-02-24T11:58:21.661Z,7.10
2018-02-24T12:00:47.853Z,6.90
2018-02-24T12:03:14.835Z,8.27
2018-02-24T12:05:41.115Z,7.57
2018-02-24T12:08:08.042Z,7.40
2018-02-24T12:10:35.033Z,7.50
2018-02-24T12:13:01.262Z,7.10
2018-02-24T12:15:27.479Z,7.10
2018-02-24T12:17:53.621Z,7.33
2018-02-24T12:20:19.978Z,8.00
2018-02-24T12:22:46.258Z,8.13
2018-02-24T12:25:13.132Z,6.87
2018-02-24T12:27:39.320Z,7.30
2018-02-24T12:30:06.237Z,7.33
2018-02-24T12:32:32.474Z,6.67
2018-02-24T12:34:59.404Z,5.20
2018-02-24T12:37:25.612Z,5.77
2018-02-24T12:39:51.805Z,6.03
2018-02-24T12:42:18.755Z,4.70
2018-02-24T12:44:44.969Z,5.07
2018-02-24T12:47:11.925Z,5.27
2018-02-24T12:49:38.938Z,4.20
2018-02-24T12:52:05.199Z,4.00
2018-02-24T12:54:32.149Z,4.57
2018-02-24T12:56:58.379Z,3.67
2018-02-24T12:59:24.594Z,4.03
2018-02-24T13:01:51.477Z,3.73
2018-02-24T13:04:17.716Z,2.87
2018-02-24T13:06:43.912Z,3.00
2018-02-24T13:09:10.066Z,2.37
2018-02-24T13:11:36.267Z,2.63
2018-02-24T13:14:02.484Z,3.50
2018-02-24T13:16:29.534Z,3.30
2018-02-24T13:18:56.401Z,3.30
2018-02-24T13:21:22.564Z,2.67
2018-02-24T13:23:49.556Z,3.20
2018-02-24T13:26:15.723Z,3.07
2018-02-24T13:28:41.969Z,3.43
2018-02-24T13:31:08.912Z,3.30
2018-02-24T13:33:35.177Z,2.87
2018-02-24T13:36:02.100Z,3.40
2018-02-24T13:38:28.288Z,2.60
2018-02-24T13:40:54.557Z,2.73
2018-02-24T13:43:20.792Z,3.20
2018-02-24T13:45:47.779Z,2.30
2018-02-24T13:48:14.099Z,3.43
2018-02-24T13:50:40.277Z,3.43
2018-02-24T13:53:06.459Z,2.90
2018-02-24T13:55:32.651Z,4.03
2018-02-24T13:57:58.856Z,3.23
2018-02-24T14:00:25.911Z,3.63
2018-02-24T14:02:52.148Z,3.23
2018-02-24T14:05:18.303Z,3.77
2018-02-24T14:07:45.217Z,3.97
2018-02-24T14:10:11.407Z,3.50
2018-02-24T14:12:37.620Z,3.47
2018-02-24T14:15:03.859Z,3.97
2018-02-24T14:17:30.046Z,3.40
2018-02-24T14:19:57.000Z,3.60
2018-02-24T14:22:23.893Z,4.27
2018-02-24T14:24:50.060Z,3.37
2018-02-24T14:27:16.946Z,4.17
2018-02-24T14:29:43.204Z,3.83
2018-02-24T14:32:10.117Z,4.37
2018-02-24T14:34:36.292Z,4.40
2018-02-24T14:37:03.249Z,4.23
2018-02-24T14:39:30.167Z,4.70
2018-02-24T14:41:56.414Z,4.73
2018-02-24T14:44:23.316Z,4.73
2018-02-24T14:46:49.567Z,5.07
2018-02-24T14:49:15.737Z,5.63
2018-02-24T14:51:42.643Z,5.17
2018-02-24T14:54:08.856Z,5.00
2018-02-24T14:56:35.016Z,5.90
2018-02-24T14:59:01.166Z,5.20
2018-02-24T15:01:27.360Z,4.90
2018-02-24T15:03:53.555Z,4.67
2018-02-24T15:06:19.859Z,5.17
2018-02-24T15:08:46.768Z,4.80
2018-02-24T15:11:12.941Z,5.47
2018-02-24T15:13:39.125Z,5.27
2018-02-24T15:16:05.296Z,4.87
2018-02-24T15:18:31.507Z,4.70
2018-02-24T15:20:57.758Z,4.77
2018-02-24T15:23:23.917Z,4.40
2018-02-24T15:25:50.208Z,4.13
2018-02-24T15:28:16.379Z,5.00
2018-02-24T15:30:43.233Z,4.40
2018-02-24T15:33:09.434Z,3.77
2018-02-24T15:35:36.376Z,4.57
2018-02-24T15:38:02.613Z,4.03
2018-02-24T15:40:28.841Z,4.20
2018-02-24T15:42:55.055Z,4.73
2018-02-24T15:45:21.256Z,4.77
2018-02-24T15:47:47.444Z,4.60
2018-02-24T15:50:13.644Z,4.77
2018-02-24T15:52:39.816Z,4.53
2018-02-24T15:55:06.734Z,3.83
2018-02-24T15:57:33.696Z,3.90
2018-02-24T16:00:00.604Z,4.30
2018-02-24T16:02:28.379Z,3.97
2018-02-24T16:04:54.625Z,4.13
2018-02-24T16:07:20.819Z,5.07
2018-02-24T16:09:47.061Z,4.90
2018-02-24T16:12:13.272Z,5.07
2018-02-24T16:14:39.417Z,4.40
2018-02-24T16:17:05.625Z,5.17
2018-02-24T16:19:31.795Z,4.20
2018-02-24T16:21:58.784Z,4.50
2018-02-24T16:24:24.975Z,4.93
2018-02-24T16:26:51.894Z,4.67
2018-02-24T16:29:18.132Z,4.77
2018-02-24T16:31:45.110Z,4.80
2018-02-24T16:34:11.251Z,4.77
2018-02-24T16:36:37.431Z,5.43
2018-02-24T16:39:03.662Z,4.10
2018-02-24T16:41:29.852Z,4.80
2018-02-24T16:43:56.013Z,5.07
2018-02-24T16:46:22.219Z,4.67
2018-02-24T16:48:48.443Z,4.53
2018-02-24T16:51:14.597Z,4.43
2018-02-24T16:53:41.501Z,4.63
2018-02-24T16:56:07.710Z,5.30
2018-02-24T16:58:33.862Z,4.77
2018-02-24T17:01:00.019Z,4.77
2018-02-24T17:03:27.002Z,4.47
2018-02-24T17:05:53.216Z,5.30
2018-02-24T17:08:20.107Z,5.23
2018-02-24T17:10:46.321Z,4.80
2018-02-24T17:13:12.486Z,4.67
2018-02-24T17:15:38.709Z,4.43
2018-02-24T17:18:04.883Z,4.20
2018-02-24T17:20:31.078Z,4.03
2018-02-24T17:22:57.218Z,5.33
2018-02-24T17:25:24.151Z,5.07
2018-02-24T17:27:51.102Z,5.37
2018-02-24T17:30:18.051Z,4.67
2018-02-24T17:32:44.948Z,4.40
2018-02-24T17:35:11.185Z,5.20
2018-02-24T17:37:37.430Z,3.97
2018-02-24T17:40:04.323Z,3.80
2018-02-24T17:42:30.564Z,5.00
2018-02-24T17:44:56.758Z,4.30
2018-02-24T17:47:23.723Z,4.17
2018-02-24T17:49:49.931Z,4.43
2018-02-24T17:52:16.829Z,4.60
2018-02-24T17:54:43.027Z,5.40
2018-02-24T17:57:09.241Z,4.97
2018-02-24T17:59:36.179Z,3.97
2018-02-24T18:02:03.119Z,4.30
2018-02-24T18:04:30.094Z,3.30
2018-02-24T18:06:56.259Z,3.87
2018-02-24T18:09:22.448Z,3.10
2018-02-24T18:11:48.595Z,2.93
2018-02-24T18:14:14.792Z,3.07
2018-02-24T18:16:40.969Z,3.07
2018-02-24T18:19:07.201Z,3.37
2018-02-24T18:21:33.432Z,3.27
2018-02-24T18:23:59.613Z,2.67
2018-02-24T18:26:25.843Z,3.83
2018-02-24T18:28:52.028Z,2.60
2018-02-24T18:31:19.044Z,3.30
2018-02-24T18:33:45.280Z,3.10
2018-02-24T18:36:11.516Z,2.97
2018-02-24T18:38:39.877Z,4.00
2018-02-24T18:41:06.078Z,3.40
2018-02-24T18:43:32.281Z,3.40
2018-02-24T18:45:59.242Z,3.37
2018-02-24T18:48:25.543Z,4.00
2018-02-24T18:50:52.585Z,3.73
2018-02-24T18:53:18.805Z,3.40
2018-02-24T18:55:45.716Z,3.67
2018-02-24T18:58:11.872Z,3.70
2018-02-24T19:00:38.125Z,3.33
2018-02-24T19:03:06.139Z,3.43
2018-02-24T19:05:32.306Z,3.93
2018-02-24T19:07:58.531Z,3.63
2018-02-24T19:10:25.529Z,3.67
2018-02-24T19:12:51.699Z,4.90
2018-02-24T19:15:17.847Z,3.87
2018-02-24T19:17:44.828Z,3.60
2018-02-24T19:20:11.045Z,3.30
2018-02-24T19:22:37.313Z,3.90
2018-02-24T19:25:03.547Z,3.20
2018-02-24T19:27:29.770Z,4.00
2018-02-24T19:29:55.957Z,3.60
2018-02-24T19:32:22.124Z,3.83
2018-02-24T19:34:48.298Z,3.63
2018-02-24T19:37:15.236Z,3.50
2018-02-24T19:39:42.161Z,3.70
2018-02-24T19:42:08.300Z,4.20
2018-02-24T19:44:35.205Z,4.07
2018-02-24T19:47:01.370Z,3.80
2018-02-24T19:49:27.535Z,4.73
2018-02-24T19:51:53.703Z,3.20
2018-02-24T19:54:19.921Z,3.40
2018-02-24T19:56:46.195Z,4.00
2018-02-24T19:59:13.097Z,3.50
2018-02-24T20:01:39.323Z,3.77
2018-02-24T20:04:05.524Z,2.97
2018-02-24T20:06:31.771Z,3.63
2018-02-24T20:08:57.960Z,3.80
2018-02-24T20:11:24.932Z,4.67
2018-02-24T20:13:51.169Z,3.87
2018-02-24T20:16:17.347Z,4.30
2018-02-24T20:18:44.273Z,3.77
2018-02-24T20:21:10.547Z,3.87
2018-02-24T20:23:36.729Z,3.67
2018-02-24T20:26:02.888Z,4.13
2018-02-24T20:28:29.825Z,3.87
2018-02-24T20:30:56.774Z,4.40
2018-02-24T20:33:23.038Z,3.60
2018-02-24T20:35:49.253Z,3.90
2018-02-24T20:38:15.558Z,3.83
2018-02-24T20:40:42.510Z,3.93
2018-02-24T20:43:09.465Z,4.00
2018-02-24T20:45:35.706Z,3.60
2018-02-24T20:48:01.929Z,4.03
2018-02-24T20:50:28.082Z,4.20
2018-02-24T20:52:54.270Z,4.47
2018-02-24T20:55:20.502Z,3.60
2018-02-24T20:57:46.718Z,4.03
2018-02-24T21:00:13.003Z,3.67
2018-02-24T21:02:39.238Z,4.00
2018-02-24T21:05:05.480Z,3.97
2018-02-24T21:07:31.707Z,4.63
2018-02-24T21:09:57.849Z,4.17
2018-02-24T21:12:24.792Z,4.00
2018-02-24T21:14:51.780Z,4.17
2018-02-24T21:17:17.983Z,4.17
2018-02-24T21:19:44.207Z,3.70
2018-02-24T21:22:11.080Z,3.70
2018-02-24T21:24:37.249Z,4.00
2018-02-24T21:27:03.482Z,4.20
2018-02-24T21:29:29.657Z,3.80
2018-02-24T21:31:55.954Z,4.40
2018-02-24T21:34:22.941Z,4.30
2018-02-24T21:36:49.207Z,4.60
2018-02-24T21:39:15.483Z,4.00
2018-02-24T21:41:41.715Z,4.23
2018-02-24T21:44:07.980Z,4.90
2018-02-24T21:46:34.223Z,4.20
2018-02-24T21:49:01.233Z,4.47
2018-02-24T21:51:27.510Z,4.20
2018-02-24T21:53:54.451Z,5.17
2018-02-24T21:56:20.709Z,4.80
2018-02-24T21:58:46.900Z,4.30
2018-02-24T22:01:13.155Z,3.93
2018-02-24T22:03:40.105Z,4.47
2018-02-24T22:06:07.021Z,4.60
2018-02-24T22:08:33.271Z,4.30
2018-02-24T22:11:00.233Z,4.73
2018-02-24T22:13:26.455Z,5.40
2018-02-24T22:15:52.671Z,5.13
2018-02-24T22:18:19.668Z,5.13
2018-02-24T22:20:45.879Z,5.47
2018-02-24T22:23:12.064Z,4.80
2018-02-24T22:25:39.017Z,4.77
2018-02-24T22:28:05.941Z,6.17
2018-02-24T22:30:32.154Z,5.83
2018-02-24T22:32:58.333Z,5.83
2018-02-24T22:35:24.485Z,5.30
2018-02-24T22:37:50.721Z,6.07
2018-02-24T22:40:16.930Z,5.53
2018-02-24T22:42:43.119Z,5.70
2018-02-24T22:45:10.033Z,5.93
2018-02-24T22:47:42.320Z,6.50
2018-02-24T22:50:09.267Z,6.37
2018-02-24T22:52:36.191Z,5.93
2018-02-24T22:55:02.430Z,6.70
2018-02-24T22:57:29.447Z,6.13
2018-02-24T22:59:55.705Z,6.20
2018-02-24T23:02:21.886Z,6.20
2018-02-24T23:04:48.041Z,6.97
2018-02-24T23:07:14.296Z,5.97
2018-02-24T23:09:41.243Z,6.73
2018-02-24T23:12:07.466Z,6.40
2018-02-24T23:14:33.734Z,6.03
2018-02-24T23:16:59.995Z,5.70
2018-02-24T23:19:26.214Z,5.50
2018-02-24T23:21:52.448Z,6.90
2018-02-24T23:24:18.639Z,6.70
2018-02-24T23:26:45.610Z,6.63
2018-02-24T23:29:11.774Z,5.53
2018-02-24T23:31:37.963Z,6.50
2018-02-24T23:34:04.158Z,6.07
2018-02-24T23:36:31.112Z,7.17
2018-02-24T23:38:57.332Z,6.50
2018-02-24T23:41:24.237Z,6.53
2018-02-24T23:43:50.490Z,8.13
2018-02-24T23:46:16.661Z,7.73
2018-02-24T23:48:42.870Z,8.00
2018-02-24T23:51:09.070Z,7.47
2018-02-24T23:53:35.251Z,7.83
2018-02-24T23:56:01.448Z,8.10
2018-02-24T23:58:28.424Z,7.23
